Wetterdaten: aktuell Dienstag, 05.05.2026 23:00
Datum Zeit Innen Temp. A. Schlaf Luftf.innen Feuchte A. Feuchte 2 Luftdruck Regen Wind
05.05.2026 23:00 24,6 °C 14,9 °C 22,0 °C 41 % 63 % 40 % 1006,6 hPa 0,0 mm 0,0 km/h
05.05.2026 22:00 24,5 °C 16,0 °C 22,0 °C 41 % 59 % 40 % 1006,4 hPa 0,0 mm 5,0 km/h
05.05.2026 21:00 24,5 °C 17,2 °C 22,0 °C 42 % 54 % 40 % 1006,2 hPa 0,0 mm 10,5 km/h
05.05.2026 20:00 24,4 °C 18,6 °C 22,0 °C 41 % 50 % 39 % 1006,0 hPa 0,0 mm 10,2 km/h
05.05.2026 19:00 24,0 °C 19,2 °C 22,0 °C 39 % 47 % 39 % 1006,0 hPa 0,0 mm 9,1 km/h
05.05.2026 18:00 24,2 °C 20,0 °C 22,0 °C 38 % 44 % 39 % 1005,8 hPa 0,0 mm 9,4 km/h
05.05.2026 17:00 24,4 °C 21,3 °C 22,0 °C 38 % 40 % 39 % 1005,7 hPa 0,0 mm 61,6 km/h
05.05.2026 16:00 24,3 °C 23,4 °C 22,0 °C 38 % 38 % 39 % 1005,4 hPa 0,2 mm 5,2 km/h
05.05.2026 15:00 24,6 °C 23,0 °C 22,0 °C 37 % 37 % 39 % 1005,4 hPa 0,0 mm 10,8 km/h
05.05.2026 14:00 24,4 °C 25,6 °C 22,0 °C 37 % 32 % 39 % 1005,1 hPa 0,0 mm 4,1 km/h
05.05.2026 13:00 24,2 °C 25,4 °C 21,9 °C 35 % 30 % 38 % 1006,2 hPa 0,0 mm 7,7 km/h
05.05.2026 12:00 24,0 °C 24,3 °C 21,9 °C 35 % 25 % 39 % 1006,3 hPa 0,0 mm 11,3 km/h
05.05.2026 11:00 24,0 °C 23,0 °C 21,9 °C 38 % 34 % 39 % 1007,5 hPa 0,0 mm 6,1 km/h
05.05.2026 10:00 23,9 °C 20,8 °C 21,8 °C 38 % 40 % 40 % 1007,8 hPa 0,0 mm 5,2 km/h
05.05.2026 09:00 23,5 °C 15,2 °C 21,6 °C 40 % 59 % 40 % 1008,6 hPa 0,0 mm 0,2 km/h
05.05.2026 08:00 23,2 °C 10,7 °C 20,6 °C 39 % 72 % 40 % 1009,3 hPa 0,0 mm 0,0 km/h
05.05.2026 07:00 23,1 °C 8,4 °C 20,5 °C 39 % 78 % 40 % 1009,6 hPa 0,0 mm 0,0 km/h
05.05.2026 06:00 23,2 °C 8,1 °C 20,5 °C 39 % 78 % 40 % 1009,6 hPa 0,0 mm 0,0 km/h
05.05.2026 05:00 23,4 °C 8,4 °C 20,7 °C 39 % 77 % 40 % 1010,6 hPa 0,0 mm 0,0 km/h
05.05.2026 04:00 23,5 °C 8,8 °C 20,8 °C 39 % 76 % 40 % 1010,6 hPa 0,0 mm 0,0 km/h
05.05.2026 03:00 23,7 °C 9,2 °C 21,0 °C 39 % 75 % 39 % 1010,5 hPa 0,0 mm 0,0 km/h
05.05.2026 02:00 23,9 °C 9,9 °C 21,3 °C 39 % 72 % 40 % 1011,5 hPa 0,0 mm 0,0 km/h
05.05.2026 01:00 24,1 °C 10,8 °C 21,5 °C 39 % 68 % 39 % 1011,3 hPa 0,0 mm 0,0 km/h
05.05.2026 00:00 24,2 °C 12,1 °C 21,6 °C 38 % 65 % 39 % 1011,1 hPa 0,0 mm 0,0 km/h
_ Min-Zeit 06:50 06:10 06:00 12:05 12:00 12:15 14:10 - 00:00
Minimum _ 23,1 °C 7,8 °C 20,5 °C 34 % 25 % 38 % 1005,0 hPa - 0,0 km/h
_ Max-Zeit 14:20 13:20 22:40 20:50 06:05 01:40 02:25 15:15 17:00
Maximum _ 24,6 °C 26,1 °C 22,1 °C 42 % 79 % 40 % 1011,6 hPa 0,2 mm 61,6 km/h
N
Durchschnitt _ 24,0 °C 16,7 °C 21,6 °C 39 % 54 % 39 % 1007,9 hPa #0,2 mm 5,4 km/h